Paradis, Louisiana
Current Conditions -  °F | °C
As of 9:53 AM on Thursday 23 Oct 2014 (Local Time) from KMSY Reporting Station
Few Clouds Few Clouds  
Wind Chill: 67°   Ceiling: Unl
Heat Index: 67°   Visibility: 10mi
Dew Point: 52°   Wind: 9mph
Humidity: 59%   Direction: 60°ENE
Pressure: 30.12"   Gusts: NA
Location:  29.88°N, 90.43°W
Report Text: KMSY 231453Z 06008KT 10SM FEW150 FEW250 19/11 A3012 RMK AO2 SLP203 T01940111 53017
Loading
Personal Weather Stations






























Interactive Weather Map
Tropical Storm Tracking
New forecast layout! Learn more

10-Day Weather Forecast

Advertisements
Track Severe Weather on mobile